createdAt,value
2023-05-23T00:01:55.500Z,97067.06
2023-05-23T00:03:58.400Z,97061.03
2023-05-23T00:06:02.312Z,97074.22
2023-05-23T00:08:05.025Z,97072.56
2023-05-23T00:10:08.489Z,97069.06
2023-05-23T00:12:12.398Z,97066.53
2023-05-23T00:14:16.410Z,97070.84
2023-05-23T00:16:19.213Z,97073.47
2023-05-23T00:18:25.538Z,97086.66
2023-05-23T00:20:28.859Z,97077.94
2023-05-23T00:22:31.532Z,97084.97
2023-05-23T00:24:34.108Z,97077.19
2023-05-23T00:26:36.875Z,97091.28
2023-05-23T00:28:39.468Z,97084.03
2023-05-23T00:30:42.207Z,97085.84
2023-05-23T00:32:44.874Z,97082.47
2023-05-23T00:34:48.904Z,97078.97
2023-05-23T00:36:51.455Z,97084.97
2023-05-23T00:38:54.298Z,97078.97
2023-05-23T00:40:56.903Z,97079.72
2023-05-23T00:42:59.598Z,97078.13
2023-05-23T00:45:02.180Z,97080.75
2023-05-23T00:47:05.902Z,97076.22
2023-05-23T00:49:08.744Z,97066.88
2023-05-23T00:51:12.687Z,97071.38
2023-05-23T00:53:15.359Z,97072.44
2023-05-23T00:55:18.047Z,97081.06
2023-05-23T00:57:20.667Z,97087.31
2023-05-23T00:59:24.867Z,97086.13
2023-05-23T01:01:28.008Z,97083.38
2023-05-23T01:03:30.739Z,97086.88
2023-05-23T01:05:33.512Z,97090.16
2023-05-23T01:07:37.479Z,97090.03
2023-05-23T01:09:40.149Z,97089.94
2023-05-23T01:11:47.753Z,97092.56
2023-05-23T01:14:00.118Z,97085.50
2023-05-23T01:16:08.485Z,97085.41
2023-05-23T01:18:15.398Z,97092.38
2023-05-23T01:20:22.370Z,97091.41
2023-05-23T01:22:50.547Z,97090.88
2023-05-23T01:24:58.639Z,97087.50
2023-05-23T01:27:10.182Z,97088.66
2023-05-23T01:29:20.467Z,97092.34
2023-05-23T01:31:25.638Z,97083.81
2023-05-23T01:33:30.746Z,97083.06
2023-05-23T01:35:33.862Z,97082.97
2023-05-23T01:37:36.439Z,97084.56
2023-05-23T01:39:39.757Z,97088.13
2023-05-23T01:41:42.411Z,97086.03
2023-05-23T01:43:48.128Z,97086.03
2023-05-23T01:45:54.870Z,97083.06
2023-05-23T01:47:58.384Z,97083.06
2023-05-23T01:50:02.162Z,97092.47
2023-05-23T01:52:10.246Z,97093.94
2023-05-23T01:54:13.773Z,97088.88
2023-05-23T01:56:16.499Z,97086.88
2023-05-23T01:58:19.358Z,97085.84
2023-05-23T02:00:22.442Z,97095.41
2023-05-23T02:02:26.564Z,97086.66
2023-05-23T02:04:29.382Z,97091.41
2023-05-23T02:06:32.117Z,97083.72
2023-05-23T02:08:34.709Z,97088.13
2023-05-23T02:10:37.560Z,97088.75
2023-05-23T02:12:40.206Z,97092.25
2023-05-23T02:14:42.840Z,97099.75
2023-05-23T02:16:45.758Z,97094.56
2023-05-23T02:18:52.615Z,97099.00
2023-05-23T02:20:56.230Z,97108.38
2023-05-23T02:22:58.905Z,97106.69
2023-05-23T02:25:01.499Z,97109.03
2023-05-23T02:27:04.348Z,97097.72
2023-05-23T02:29:06.990Z,97099.53
2023-05-23T02:31:09.660Z,97098.47
2023-05-23T02:33:12.344Z,97101.13
2023-05-23T02:35:16.587Z,97097.84
2023-05-23T02:37:19.198Z,97103.13
2023-05-23T02:39:21.772Z,97105.63
2023-05-23T02:41:24.376Z,97098.66
2023-05-23T02:43:27.092Z,97099.72
2023-05-23T02:45:29.721Z,97095.91
2023-05-23T02:47:32.380Z,97095.00
2023-05-23T02:49:34.999Z,97100.16
2023-05-23T02:51:39.259Z,97098.56
2023-05-23T02:53:42.257Z,97101.00
2023-05-23T02:55:44.989Z,97100.03
2023-05-23T02:57:47.611Z,97094.78
2023-05-23T02:59:50.367Z,97101.00
2023-05-23T03:01:52.977Z,97100.16
2023-05-23T03:03:55.806Z,97094.03
2023-05-23T03:05:58.675Z,97094.03
2023-05-23T03:08:02.671Z,97089.63
2023-05-23T03:10:06.069Z,97091.41
2023-05-23T03:12:08.962Z,97094.03
2023-05-23T03:14:11.758Z,97096.66
2023-05-23T03:16:14.576Z,97098.56
2023-05-23T03:18:17.445Z,97099.53
2023-05-23T03:20:20.662Z,97105.75
2023-05-23T03:22:23.418Z,97103.22
2023-05-23T03:24:27.537Z,97103.28
2023-05-23T03:26:30.838Z,97108.50
2023-05-23T03:28:33.817Z,97105.00
2023-05-23T03:30:36.568Z,97103.22
2023-05-23T03:32:39.533Z,97102.25
2023-05-23T03:34:42.368Z,97103.81
2023-05-23T03:36:45.203Z,97102.03
2023-05-23T03:38:48.008Z,97108.38
2023-05-23T03:40:52.205Z,97117.22
2023-05-23T03:43:03.871Z,97118.91
2023-05-23T03:45:08.039Z,97117.66
2023-05-23T03:47:10.994Z,97120.38
2023-05-23T03:49:13.763Z,97115.13
2023-05-23T03:51:16.636Z,97120.31
2023-05-23T03:53:19.425Z,97120.75
2023-05-23T03:55:24.219Z,97124.34
2023-05-23T03:57:28.311Z,97130.44
2023-05-23T03:59:31.152Z,97114.72
2023-05-23T04:01:34.017Z,97124.91
2023-05-23T04:03:37.041Z,97132.88
2023-05-23T04:05:40.251Z,97120.97
2023-05-23T04:07:43.316Z,97123.38
2023-05-23T04:09:46.091Z,97116.34
2023-05-23T04:11:49.227Z,97116.44
2023-05-23T04:13:53.578Z,97107.78
2023-05-23T04:15:57.230Z,97113.91
2023-05-23T04:18:00.363Z,97120.00
2023-05-23T04:20:03.302Z,97113.91
2023-05-23T04:22:06.311Z,97107.78
2023-05-23T04:24:09.178Z,97110.22
2023-05-23T04:26:11.785Z,97119.81
2023-05-23T04:28:14.403Z,97110.97
2023-05-23T04:30:19.205Z,97114.38
2023-05-23T04:32:23.086Z,97112.38
2023-05-23T04:34:26.033Z,97113.00
2023-05-23T04:36:28.835Z,97126.06
2023-05-23T04:38:32.119Z,97128.72
2023-05-23T04:40:34.718Z,97128.50
2023-05-23T04:42:37.298Z,97133.03
2023-05-23T04:44:39.888Z,97137.38
2023-05-23T04:46:45.477Z,97134.72
2023-05-23T04:48:48.533Z,97132.28
2023-05-23T04:50:52.617Z,97133.03
2023-05-23T04:52:56.241Z,97129.56
2023-05-23T04:55:00.133Z,97128.19
2023-05-23T04:57:02.768Z,97128.28
2023-05-23T04:59:05.371Z,97127.31
2023-05-23T05:01:09.874Z,97133.25
2023-05-23T05:03:13.846Z,97137.66
2023-05-23T05:05:16.453Z,97140.50
2023-05-23T05:07:19.095Z,97143.13
2023-05-23T05:09:22.129Z,97136.91
2023-05-23T05:11:24.837Z,97139.47
2023-05-23T05:13:27.453Z,97140.59
2023-05-23T05:15:30.057Z,97143.88
2023-05-23T05:17:36.902Z,97147.44
2023-05-23T05:19:41.022Z,97143.53
2023-05-23T05:21:43.696Z,97144.16
2023-05-23T05:23:46.278Z,97145.88
2023-05-23T05:25:48.833Z,97150.94
2023-05-23T05:27:52.651Z,97152.63
2023-05-23T05:30:00.719Z,97151.78
2023-05-23T05:32:03.422Z,97156.94
2023-05-23T05:34:06.073Z,97153.47
2023-05-23T05:36:10.013Z,97153.28
2023-05-23T05:38:12.673Z,97148.81
2023-05-23T05:40:15.365Z,97157.47
2023-05-23T05:42:17.975Z,97159.16
2023-05-23T05:44:20.544Z,97152.31
2023-05-23T05:46:23.667Z,97155.59
2023-05-23T05:48:26.325Z,97157.59
2023-05-23T05:50:28.993Z,97168.44
2023-05-23T05:52:34.697Z,97165.59
2023-05-23T05:54:37.653Z,97170.66
2023-05-23T05:56:40.531Z,97165.38
2023-05-23T05:58:43.232Z,97173.81
2023-05-23T06:00:45.822Z,97164.44
2023-05-23T06:02:51.437Z,97163.72
2023-05-23T06:04:54.195Z,97164.34
2023-05-23T06:06:56.908Z,97166.03
2023-05-23T06:09:00.851Z,97167.63
2023-05-23T06:11:03.455Z,97179.63
2023-05-23T06:13:06.233Z,97170.91
2023-05-23T06:15:09.885Z,97171.63
2023-05-23T06:17:13.014Z,97171.44
2023-05-23T06:19:16.600Z,97177.41
2023-05-23T06:21:21.331Z,97179.97
2023-05-23T06:23:23.967Z,97179.75
2023-05-23T06:25:28.167Z,97178.59
2023-05-23T06:27:30.738Z,97178.38
2023-05-23T06:29:35.813Z,97174.78
2023-05-23T06:31:38.468Z,97176.38
2023-05-23T06:33:41.106Z,97174.72
2023-05-23T06:35:43.868Z,97172.47
2023-05-23T06:37:46.438Z,97182.78
2023-05-23T06:39:49.031Z,97181.00
2023-05-23T06:41:52.964Z,97182.63
2023-05-23T06:43:55.567Z,97190.59
2023-05-23T06:45:58.242Z,97187.03
2023-05-23T06:48:01.313Z,97191.22
2023-05-23T06:50:04.369Z,97188.50
2023-05-23T06:52:06.989Z,97187.47
2023-05-23T06:54:09.569Z,97186.41
2023-05-23T06:56:12.226Z,97193.16
2023-05-23T06:58:16.149Z,97197.59
2023-05-23T07:00:19.783Z,97196.09
2023-05-23T07:02:22.368Z,97196.75
2023-05-23T07:04:24.966Z,97198.53
2023-05-23T07:06:28.480Z,97199.59
2023-05-23T07:08:31.147Z,97205.91
2023-05-23T07:10:34.666Z,97210.22
2023-05-23T07:12:37.376Z,97209.94
2023-05-23T07:14:41.346Z,97206.22
2023-05-23T07:16:43.988Z,97208.69
2023-05-23T07:18:46.625Z,97208.84
2023-05-23T07:20:49.287Z,97213.00
2023-05-23T07:22:52.805Z,97211.09
2023-05-23T07:24:55.442Z,97212.78
2023-05-23T07:26:58.060Z,97213.63
2023-05-23T07:29:02.878Z,97213.41
2023-05-23T07:31:09.466Z,97214.16
2023-05-23T07:33:12.296Z,97216.91
2023-05-23T07:35:15.283Z,97215.94
2023-05-23T07:37:21.312Z,97220.28
2023-05-23T07:39:24.445Z,97229.00
2023-05-23T07:41:27.245Z,97225.03
2023-05-23T07:43:32.229Z,97225.78
2023-05-23T07:45:34.895Z,97221.63
2023-05-23T07:47:39.024Z,97222.50
2023-05-23T07:49:41.622Z,97224.03
2023-05-23T07:51:44.230Z,97226.88
2023-05-23T07:53:46.881Z,97226.88
2023-05-23T07:55:49.727Z,97227.63
2023-05-23T07:57:52.640Z,97226.78
2023-05-23T07:59:55.487Z,97230.47
2023-05-23T08:01:58.157Z,97232.25
2023-05-23T08:04:03.830Z,97230.59
2023-05-23T08:06:07.413Z,97235.31
2023-05-23T08:08:10.018Z,97232.59
2023-05-23T08:10:12.759Z,97234.56
2023-05-23T08:12:15.400Z,97239.19
2023-05-23T08:14:18.212Z,97240.13
2023-05-23T08:16:21.640Z,97242.66
2023-05-23T08:18:24.523Z,97244.56
2023-05-23T08:20:31.031Z,97248.44
2023-05-23T08:22:33.709Z,97246.84
2023-05-23T08:24:36.337Z,97249.19
2023-05-23T08:26:38.923Z,97253.06
2023-05-23T08:28:41.561Z,97258.25
2023-05-23T08:30:44.422Z,97257.22
2023-05-23T08:32:47.090Z,97262.56
2023-05-23T08:34:50.068Z,97264.38
2023-05-23T08:36:54.034Z,97268.56
2023-05-23T08:38:56.637Z,97268.47
2023-05-23T08:41:02.231Z,97270.94
2023-05-23T08:43:05.474Z,97273.75
2023-05-23T08:45:09.977Z,97272.91
2023-05-23T08:47:14.428Z,97275.44
2023-05-23T08:49:19.194Z,97279.75
2023-05-23T08:51:23.406Z,97276.47
2023-05-23T08:53:28.327Z,97281.75
2023-05-23T08:55:31.521Z,97292.00
2023-05-23T08:57:35.081Z,97286.00
2023-05-23T08:59:40.028Z,97285.13
2023-05-23T09:01:43.327Z,97293.03
2023-05-23T09:03:45.924Z,97284.28
2023-05-23T09:05:49.514Z,97292.00
2023-05-23T09:07:52.240Z,97293.59
2023-05-23T09:09:56.443Z,97298.66
2023-05-23T09:12:01.077Z,97306.53
2023-05-23T09:14:05.091Z,97301.91
2023-05-23T09:16:08.949Z,97304.72
2023-05-23T09:18:11.594Z,97305.78
2023-05-23T09:20:15.382Z,97311.03
2023-05-23T09:22:18.163Z,97316.97
2023-05-23T09:24:20.820Z,97313.47
2023-05-23T09:26:25.053Z,97321.13
2023-05-23T09:28:27.724Z,97325.06
2023-05-23T09:30:35.358Z,97318.84
2023-05-23T09:32:38.331Z,97328.00
2023-05-23T09:34:54.824Z,97322.72
2023-05-23T09:36:57.610Z,97321.91
2023-05-23T09:39:03.882Z,97318.88
2023-05-23T09:41:06.626Z,97329.22
2023-05-23T09:43:10.973Z,97318.59
2023-05-23T09:45:14.422Z,97327.22
2023-05-23T09:47:17.168Z,97326.41
2023-05-23T09:49:20.690Z,97324.53
2023-05-23T09:51:24.572Z,97329.59
2023-05-23T09:53:27.528Z,97329.50
2023-05-23T09:55:31.159Z,97330.03
2023-05-23T09:57:37.075Z,97339.63
2023-05-23T09:59:42.750Z,97336.34
2023-05-23T10:01:51.164Z,97336.44
2023-05-23T10:03:59.875Z,97343.41
2023-05-23T10:06:09.186Z,97339.81
2023-05-23T10:08:15.215Z,97340.56
2023-05-23T10:10:18.006Z,97339.81
2023-05-23T10:12:43.572Z,97344.34
2023-05-23T10:14:56.037Z,97341.72
2023-05-23T10:17:08.553Z,97347.72
2023-05-23T10:19:18.906Z,97343.22
2023-05-23T10:21:32.038Z,97344.88
2023-05-23T10:23:35.044Z,97339.63
2023-05-23T10:25:38.807Z,97339.63
2023-05-23T10:27:41.568Z,97348.28
2023-05-23T10:29:44.933Z,97341.13
2023-05-23T10:31:49.841Z,97344.50
2023-05-23T10:33:57.553Z,97341.66
2023-05-23T10:36:11.227Z,97344.19
2023-05-23T10:38:27.741Z,97343.28
2023-05-23T10:40:44.194Z,97334.41
2023-05-23T10:42:53.980Z,97327.47
2023-05-23T10:45:15.504Z,97333.56
2023-05-23T10:47:29.149Z,97333.44
2023-05-23T10:49:44.929Z,97336.94
2023-05-23T10:51:51.276Z,97327.91
2023-05-23T10:53:55.692Z,97327.91
2023-05-23T10:55:58.666Z,97324.31
2023-05-23T10:58:12.120Z,97328.53
2023-05-23T11:00:17.112Z,97326.56
2023-05-23T11:02:26.156Z,97327.00
2023-05-23T11:04:30.808Z,97332.81
2023-05-23T11:06:38.914Z,97334.41
2023-05-23T11:08:48.841Z,97322.69
2023-05-23T11:11:00.663Z,97326.69
2023-05-23T11:13:10.916Z,97319.28
2023-05-23T11:15:21.604Z,97324.19
2023-05-23T11:17:33.144Z,97326.88
2023-05-23T11:19:50.085Z,97323.75
2023-05-23T11:21:55.373Z,97321.66
2023-05-23T11:23:58.355Z,97319.56
2023-05-23T11:26:01.050Z,97324.63
2023-05-23T11:28:05.383Z,97324.41
2023-05-23T11:30:10.087Z,97323.38
2023-05-23T11:32:17.185Z,97324.13
2023-05-23T11:34:21.593Z,97318.84
2023-05-23T11:36:26.076Z,97319.38
2023-05-23T11:38:28.840Z,97317.47
2023-05-23T11:40:33.489Z,97317.25
2023-05-23T11:42:42.828Z,97309.13
2023-05-23T11:44:49.577Z,97307.13
2023-05-23T11:47:02.095Z,97309.59
2023-05-23T11:49:12.077Z,97305.56
2023-05-23T11:51:15.481Z,97306.09
2023-05-23T11:53:22.192Z,97301.28
2023-05-23T11:55:25.091Z,97301.78
2023-05-23T11:57:28.097Z,97307.59
2023-05-23T11:59:30.882Z,97302.84
2023-05-23T12:01:34.633Z,97305.38
2023-05-23T12:03:47.227Z,97302.84
2023-05-23T12:05:49.982Z,97301.75
2023-05-23T12:07:52.633Z,97301.34
2023-05-23T12:09:58.207Z,97308.22
2023-05-23T12:12:01.448Z,97300.19
2023-05-23T12:14:06.492Z,97303.56
2023-05-23T12:16:09.529Z,97294.69
2023-05-23T12:18:13.178Z,97298.94
2023-05-23T12:20:16.142Z,97287.63
2023-05-23T12:22:24.977Z,97298.59
2023-05-23T12:24:27.590Z,97295.94
2023-05-23T12:26:32.041Z,97292.03
2023-05-23T12:28:39.279Z,97291.94
2023-05-23T12:30:43.207Z,97291.28
2023-05-23T12:32:47.593Z,97291.06
2023-05-23T12:34:51.096Z,97292.41
2023-05-23T12:37:10.251Z,97289.44
2023-05-23T12:39:26.117Z,97290.19
2023-05-23T12:41:28.751Z,97293.56
2023-05-23T12:43:33.619Z,97288.28
2023-05-23T12:45:37.582Z,97298.94
2023-05-23T12:47:41.046Z,97292.94
2023-05-23T12:49:44.863Z,97290.06
2023-05-23T12:51:47.834Z,97296.19
2023-05-23T12:53:51.108Z,97296.94
2023-05-23T12:55:53.717Z,97294.56
2023-05-23T12:57:56.300Z,97291.69
2023-05-23T13:00:00.496Z,97285.47
2023-05-23T13:02:04.030Z,97290.75
2023-05-23T13:04:06.713Z,97286.41
2023-05-23T13:06:09.362Z,97284.75
2023-05-23T13:08:13.003Z,97287.50
2023-05-23T13:10:15.968Z,97292.16
2023-05-23T13:12:19.393Z,97284.00
2023-05-23T13:14:21.976Z,97293.59
2023-05-23T13:16:26.089Z,97298.16
2023-05-23T13:18:28.727Z,97288.66
2023-05-23T13:20:31.349Z,97291.19
2023-05-23T13:22:34.551Z,97295.31
2023-05-23T13:24:37.600Z,97301.75
2023-05-23T13:26:40.203Z,97304.28
2023-05-23T13:28:42.837Z,97299.00
2023-05-23T13:30:47.338Z,97298.16
2023-05-23T13:32:52.050Z,97299.44
2023-05-23T13:34:54.865Z,97291.72
2023-05-23T13:36:57.528Z,97290.34
2023-05-23T13:39:00.204Z,97287.72
2023-05-23T13:41:02.805Z,97281.34
2023-05-23T13:43:06.014Z,97283.88
2023-05-23T13:45:10.033Z,97288.56
2023-05-23T13:47:13.627Z,97295.16
2023-05-23T13:49:17.648Z,97286.75
2023-05-23T13:51:20.261Z,97279.03
2023-05-23T13:53:23.098Z,97271.81
2023-05-23T13:55:25.877Z,97282.28
2023-05-23T13:57:28.563Z,97295.16
2023-05-23T13:59:32.113Z,97283.00
2023-05-23T14:01:34.770Z,97278.63
2023-05-23T14:03:37.432Z,97278.25
2023-05-23T14:05:41.497Z,97275.25
2023-05-23T14:07:47.110Z,97271.38
2023-05-23T14:09:49.738Z,97272.31
2023-05-23T14:11:53.010Z,97263.94
2023-05-23T14:13:57.882Z,97259.38
2023-05-23T14:16:02.032Z,97268.56
2023-05-23T14:18:05.045Z,97265.63
2023-05-23T14:20:09.107Z,97266.72
2023-05-23T14:22:13.100Z,97270.75
2023-05-23T14:24:15.774Z,97272.16
2023-05-23T14:26:18.386Z,97267.97
2023-05-23T14:28:21.022Z,97264.47
2023-05-23T14:30:24.974Z,97271.22
2023-05-23T14:32:27.619Z,97261.94
2023-05-23T14:34:30.506Z,97260.50
2023-05-23T14:36:33.376Z,97263.16
2023-05-23T14:38:39.116Z,97266.03
2023-05-23T14:40:43.869Z,97267.88
2023-05-23T14:42:47.127Z,97274.25
2023-05-23T14:44:49.715Z,97270.88
2023-05-23T14:46:52.428Z,97272.78
2023-05-23T14:48:54.999Z,97276.53
2023-05-23T14:51:01.991Z,97283.28
2023-05-23T14:53:04.743Z,97280.25
2023-05-23T14:55:09.807Z,97280.38
2023-05-23T14:57:12.412Z,97283.97
2023-05-23T14:59:15.479Z,97285.53
2023-05-23T15:01:18.253Z,97288.31
2023-05-23T15:03:21.002Z,97285.53
2023-05-23T15:05:23.768Z,97281.44
2023-05-23T15:07:26.425Z,97279.03
2023-05-23T15:09:30.969Z,97277.84
2023-05-23T15:11:39.027Z,97276.28
2023-05-23T15:13:41.730Z,97282.19
2023-05-23T15:15:44.351Z,97279.66
2023-05-23T15:17:46.985Z,97277.00
2023-05-23T15:19:49.703Z,97279.19
2023-05-23T15:21:52.339Z,97280.25
2023-05-23T15:23:55.811Z,97273.28
2023-05-23T15:25:58.871Z,97267.25
2023-05-23T15:28:02.810Z,97264.84
2023-05-23T15:30:06.944Z,97265.34
2023-05-23T15:32:09.810Z,97256.69
2023-05-23T15:34:12.969Z,97267.38
2023-05-23T15:36:15.687Z,97264.94
2023-05-23T15:38:20.220Z,97268.44
2023-05-23T15:40:23.947Z,97258.31
2023-05-23T15:42:26.566Z,97261.56
2023-05-23T15:44:30.482Z,97267.25
2023-05-23T15:46:34.009Z,97263.16
2023-05-23T15:48:36.686Z,97267.13
2023-05-23T15:50:40.090Z,97269.66
2023-05-23T15:52:42.857Z,97273.50
2023-05-23T15:54:45.752Z,97271.13
2023-05-23T15:56:48.354Z,97265.22
2023-05-23T15:58:51.000Z,97267.75
2023-05-23T16:00:54.976Z,97258.72
2023-05-23T16:02:57.576Z,97261.97
2023-05-23T16:05:00.286Z,97264.00
2023-05-23T16:07:03.961Z,97261.59
2023-05-23T16:09:06.642Z,97266.88
2023-05-23T16:11:09.347Z,97262.75
2023-05-23T16:13:11.989Z,97265.63
2023-05-23T16:15:14.587Z,97263.47
2023-05-23T16:17:18.910Z,97262.75
2023-05-23T16:19:22.395Z,97262.63
2023-05-23T16:21:25.010Z,97256.50
2023-05-23T16:23:29.845Z,97259.50
2023-05-23T16:25:32.641Z,97265.31
2023-05-23T16:27:35.921Z,97259.50
2023-05-23T16:29:38.585Z,97265.28
2023-05-23T16:31:41.261Z,97262.28
2023-05-23T16:33:45.849Z,97259.19
2023-05-23T16:35:48.905Z,97254.94
2023-05-23T16:37:51.528Z,97251.47
2023-05-23T16:39:54.156Z,97258.44
2023-05-23T16:41:58.713Z,97252.44
2023-05-23T16:44:02.971Z,97244.81
2023-05-23T16:46:05.898Z,97248.06
2023-05-23T16:48:08.575Z,97247.13
2023-05-23T16:50:13.910Z,97248.19
2023-05-23T16:52:16.681Z,97250.25
2023-05-23T16:54:19.892Z,97245.06
2023-05-23T16:56:23.922Z,97247.00
2023-05-23T16:58:26.560Z,97236.78
2023-05-23T17:00:29.255Z,97242.09
2023-05-23T17:02:31.923Z,97242.56
2023-05-23T17:04:36.622Z,97245.81
2023-05-23T17:06:40.559Z,97250.00
2023-05-23T17:08:43.154Z,97249.66
2023-05-23T17:10:45.808Z,97245.78
2023-05-23T17:12:48.909Z,97240.97
2023-05-23T17:14:51.519Z,97250.25
2023-05-23T17:16:54.892Z,97256.50
2023-05-23T17:18:57.523Z,97254.81
2023-05-23T17:21:00.415Z,97257.34
2023-05-23T17:23:05.367Z,97258.06
2023-05-23T17:25:08.837Z,97254.56
2023-05-23T17:27:11.443Z,97261.56
2023-05-23T17:29:14.194Z,97270.72
2023-05-23T17:31:16.810Z,97259.25
2023-05-23T17:33:19.611Z,97272.03
2023-05-23T17:35:23.354Z,97266.28
2023-05-23T17:37:27.887Z,97269.16
2023-05-23T17:39:31.828Z,97263.41
2023-05-23T17:41:34.427Z,97265.69
2023-05-23T17:43:37.896Z,97264.50
2023-05-23T17:45:41.424Z,97265.81
2023-05-23T17:47:44.176Z,97274.34
2023-05-23T17:49:46.866Z,97275.78
2023-05-23T17:51:50.864Z,97275.31
2023-05-23T17:53:53.844Z,97268.59
2023-05-23T17:55:58.368Z,97280.13
2023-05-23T17:58:01.164Z,97281.22
2023-05-23T18:00:04.029Z,97286.72
2023-05-23T18:02:07.576Z,97286.97
2023-05-23T18:04:10.257Z,97295.34
2023-05-23T18:06:12.998Z,97290.50
2023-05-23T18:08:15.655Z,97288.22
2023-05-23T18:10:18.875Z,97289.41
2023-05-23T18:12:23.839Z,97286.03
2023-05-23T18:14:26.611Z,97288.78
2023-05-23T18:16:29.345Z,97289.72
2023-05-23T18:18:32.378Z,97289.13
2023-05-23T18:20:35.561Z,97291.16
2023-05-23T18:22:38.196Z,97290.66
2023-05-23T18:24:41.771Z,97299.78
2023-05-23T18:26:44.848Z,97299.25
2023-05-23T18:28:48.807Z,97304.28
2023-05-23T18:30:51.423Z,97297.88
2023-05-23T18:32:54.168Z,97310.81
2023-05-23T18:34:56.828Z,97313.16
2023-05-23T18:36:59.421Z,97316.75
2023-05-23T18:39:01.988Z,97318.78
2023-05-23T18:41:04.616Z,97322.47
2023-05-23T18:43:07.252Z,97320.50
2023-05-23T18:45:12.338Z,97321.66
2023-05-23T18:47:15.047Z,97322.50
2023-05-23T18:49:17.678Z,97317.44
2023-05-23T18:51:23.267Z,97328.09
2023-05-23T18:53:25.888Z,97329.91
2023-05-23T18:55:28.506Z,97332.66
2023-05-23T18:57:32.207Z,97331.81
2023-05-23T18:59:34.933Z,97330.22
2023-05-23T19:01:38.966Z,97336.47
2023-05-23T19:03:41.719Z,97341.13
2023-05-23T19:05:44.509Z,97343.75
2023-05-23T19:07:50.828Z,97351.06
2023-05-23T19:09:53.435Z,97348.66
2023-05-23T19:11:56.824Z,97347.91
2023-05-23T19:14:00.319Z,97353.41
2023-05-23T19:16:03.064Z,97356.16
2023-05-23T19:18:07.910Z,97355.53
2023-05-23T19:20:11.984Z,97357.53
2023-05-23T19:22:14.712Z,97360.38
2023-05-23T19:24:17.311Z,97358.91
2023-05-23T19:26:20.615Z,97353.75
2023-05-23T19:28:23.310Z,97364.41
2023-05-23T19:30:25.918Z,97364.69
2023-05-23T19:32:28.711Z,97377.03
2023-05-23T19:34:32.940Z,97373.59
2023-05-23T19:36:36.522Z,97387.06
2023-05-23T19:38:39.139Z,97384.66
2023-05-23T19:40:42.112Z,97392.69
2023-05-23T19:42:45.820Z,97399.09
2023-05-23T19:44:48.443Z,97403.47
2023-05-23T19:46:51.027Z,97398.28
2023-05-23T19:48:54.325Z,97403.47
2023-05-23T19:50:58.797Z,97406.28
2023-05-23T19:53:01.390Z,97396.78
2023-05-23T19:55:04.190Z,97403.84
2023-05-23T19:57:07.213Z,97399.66
2023-05-23T19:59:09.841Z,97403.22
2023-05-23T20:01:12.578Z,97403.31
2023-05-23T20:03:15.344Z,97406.38
2023-05-23T20:05:18.117Z,97415.22
2023-05-23T20:07:22.055Z,97413.44
2023-05-23T20:09:24.814Z,97411.00
2023-05-23T20:11:28.972Z,97410.53
2023-05-23T20:13:32.533Z,97407.88
2023-05-23T20:15:45.007Z,97419.41
2023-05-23T20:17:47.805Z,97424.78
2023-05-23T20:19:50.625Z,97427.41
2023-05-23T20:21:53.328Z,97415.38
2023-05-23T20:23:57.353Z,97416.44
2023-05-23T20:26:00.223Z,97421.91
2023-05-23T20:28:05.239Z,97422.75
2023-05-23T20:30:09.678Z,97423.91
2023-05-23T20:32:12.280Z,97420.34
2023-05-23T20:34:14.871Z,97427.53
2023-05-23T20:36:20.902Z,97430.25
2023-05-23T20:38:24.712Z,97439.88
2023-05-23T20:40:29.544Z,97436.19
2023-05-23T20:42:32.736Z,97442.31
2023-05-23T20:44:37.725Z,97440.69
2023-05-23T20:46:41.207Z,97445.16
2023-05-23T20:48:44.750Z,97446.19
2023-05-23T20:50:47.607Z,97447.31
2023-05-23T20:52:50.277Z,97453.53
2023-05-23T20:54:54.495Z,97440.66
2023-05-23T20:56:59.734Z,97449.59
2023-05-23T20:59:02.479Z,97457.50
2023-05-23T21:01:05.266Z,97455.84
2023-05-23T21:03:07.978Z,97463.66
2023-05-23T21:05:11.565Z,97457.63
2023-05-23T21:07:14.302Z,97456.75
2023-05-23T21:09:17.722Z,97462.13
2023-05-23T21:11:21.020Z,97463.84
2023-05-23T21:13:25.053Z,97458.63
2023-05-23T21:15:27.833Z,97466.66
2023-05-23T21:17:30.476Z,97469.38
2023-05-23T21:19:33.166Z,97467.59
2023-05-23T21:21:36.746Z,97466.84
2023-05-23T21:23:39.338Z,97478.25
2023-05-23T21:25:41.933Z,97475.63
2023-05-23T21:27:44.740Z,97471.66
2023-05-23T21:29:48.649Z,97476.94
2023-05-23T21:31:51.349Z,97470.81
2023-05-23T21:33:54.021Z,97484.00
2023-05-23T21:35:58.048Z,97476.94
2023-05-23T21:38:01.877Z,97476.94
2023-05-23T21:40:05.755Z,97482.00
2023-05-23T21:42:08.577Z,97487.38
2023-05-23T21:44:13.380Z,97480.44
2023-05-23T21:46:17.568Z,97481.25
2023-05-23T21:48:20.150Z,97481.25
2023-05-23T21:50:22.840Z,97479.47
2023-05-23T21:52:25.524Z,97476.75
2023-05-23T21:54:28.434Z,97477.59
2023-05-23T21:56:31.127Z,97475.06
2023-05-23T21:58:33.714Z,97483.78
2023-05-23T22:00:36.303Z,97484.84
2023-05-23T22:02:40.648Z,97481.47
2023-05-23T22:04:44.760Z,97477.97
2023-05-23T22:06:47.580Z,97479.69
2023-05-23T22:08:50.599Z,97482.31
2023-05-23T22:10:53.274Z,97481.47
2023-05-23T22:12:56.260Z,97482.47
2023-05-23T22:14:58.958Z,97481.75
2023-05-23T22:17:04.261Z,97483.63
2023-05-23T22:19:09.751Z,97488.91
2023-05-23T22:21:12.691Z,97493.31
2023-05-23T22:23:17.202Z,97481.91
2023-05-23T22:25:19.787Z,97488.91
2023-05-23T22:27:22.539Z,97481.84
2023-05-23T22:29:25.191Z,97482.97
2023-05-23T22:31:28.734Z,97483.81
2023-05-23T22:33:31.426Z,97480.53
2023-05-23T22:35:35.409Z,97485.81
2023-05-23T22:37:38.134Z,97485.88
2023-05-23T22:39:40.742Z,97485.06
2023-05-23T22:41:43.325Z,97492.00
2023-05-23T22:43:46.773Z,97484.94
2023-05-23T22:45:50.149Z,97480.81
2023-05-23T22:47:54.114Z,97482.69
2023-05-23T22:49:59.543Z,97486.28
2023-05-23T22:52:03.499Z,97486.38
2023-05-23T22:54:06.605Z,97482.97
2023-05-23T22:56:09.237Z,97486.56
2023-05-23T22:58:13.779Z,97485.81
2023-05-23T23:00:16.905Z,97482.38
2023-05-23T23:02:19.676Z,97485.00
2023-05-23T23:04:23.568Z,97486.88
2023-05-23T23:06:26.661Z,97486.03
2023-05-23T23:08:30.618Z,97479.38
2023-05-23T23:10:33.352Z,97487.34
2023-05-23T23:12:36.270Z,97486.63
2023-05-23T23:14:38.923Z,97489.41
2023-05-23T23:16:42.645Z,97486.06
2023-05-23T23:18:45.386Z,97488.84
2023-05-23T23:20:48.353Z,97484.53
2023-05-23T23:22:51.352Z,97480.13
2023-05-23T23:24:55.715Z,97487.25
2023-05-23T23:26:58.359Z,97480.66
2023-05-23T23:29:00.967Z,97482.06
2023-05-23T23:31:03.664Z,97477.72
2023-05-23T23:33:06.367Z,97475.94
2023-05-23T23:35:09.453Z,97474.25
2023-05-23T23:37:12.080Z,97473.31
2023-05-23T23:39:14.726Z,97469.75
2023-05-23T23:41:18.844Z,97475.94
2023-05-23T23:43:21.456Z,97469.81
2023-05-23T23:45:24.254Z,97468.13
2023-05-23T23:47:26.895Z,97466.38
2023-05-23T23:49:29.693Z,97463.16
2023-05-23T23:51:32.624Z,97464.94
2023-05-23T23:53:35.236Z,97465.88
2023-05-23T23:55:40.187Z,97469.44
2023-05-23T23:57:44.148Z,97468.53
2023-05-23T23:59:46.740Z,97461.53
